Time;durP1;ratioP1;P1;durP2;ratioP2;P2;SDS_P1;SDS_P2;PMS_P1;PMS_P2;Temp;Humidity;BMP_temperature;BMP_pressure;BME280_temperature;BME280_humidity;BME280_pressure;Samples;Min_cycle;Max_cycle;Signal;HPM_P1;HPM_P2
2022/03/11 06:20:40;;;;;;;32.95;13.75;;;;;;;;;;5307469;23;19926;-63
2022/03/11 06:23:06;;;;;;;34.63;13.15;;;;;;;;;;4990594;28;20441;-65
2022/03/11 06:25:32;;;;;;;30.92;13.50;;;;;;;;;;4990647;28;20022;-67
2022/03/11 06:27:58;;;;;;;25.98;13.07;;;;;;;;;;4984148;28;20069;-63
2022/03/11 06:30:24;;;;;;;26.52;13.40;;;;;;;;;;4974182;28;20027;-66
2022/03/11 06:32:51;;;;;;;23.95;11.95;;;;;;;;;;4971338;28;20023;-64
2022/03/11 06:35:18;;;;;;;22.95;11.27;;;;;;;;;;4971334;28;20034;-63
2022/03/11 06:37:44;;;;;;;22.13;10.23;;;;;;;;;;4971394;28;20026;-62
2022/03/11 06:40:11;;;;;;;26.65;10.63;;;;;;;;;;4971365;28;20562;-66
2022/03/11 06:42:38;;;;;;;26.15;11.68;;;;;;;;;;4973534;28;20467;-65
2022/03/11 06:45:05;;;;;;;21.95;11.00;;;;;;;;;;4980184;28;20018;-63
2022/03/11 06:47:31;;;;;;;21.98;11.30;;;;;;;;;;4983001;28;20050;-66
2022/03/11 06:49:57;;;;;;;23.05;11.30;;;;;;;;;;4982094;28;20027;-62
2022/03/11 06:52:26;;;;;;;21.35;11.73;;;;;;;;;;4983697;28;20053;-64
2022/03/11 06:54:52;;;;;;;27.23;13.57;;;;;;;;;;4984267;28;20089;-63
2022/03/11 06:57:18;;;;;;;26.95;12.57;;;;;;;;;;4982766;28;20027;-62
2022/03/11 06:59:45;;;;;;;22.92;12.00;;;;;;;;;;4983443;28;20022;-62
2022/03/11 07:02:11;;;;;;;20.40;10.02;;;;;;;;;;4983789;28;20035;-64
2022/03/11 07:04:37;;;;;;;20.05;9.88;;;;;;;;;;4982198;28;20062;-63
2022/03/11 07:07:04;;;;;;;16.60;9.13;;;;;;;;;;4984975;28;20027;-62
2022/03/11 07:09:30;;;;;;;19.13;8.57;;;;;;;;;;4985260;28;20533;-62
2022/03/11 07:11:57;;;;;;;16.90;8.75;;;;;;;;;;4984039;28;20386;-62
2022/03/11 07:14:26;;;;;;;22.80;10.15;;;;;;;;;;4982450;28;20023;-61
2022/03/11 07:16:52;;;;;;;22.02;10.65;;;;;;;;;;4964842;28;20054;-71
2022/03/11 07:19:18;;;;;;;27.25;11.82;;;;;;;;;;4983765;28;20086;-63
2022/03/11 07:21:44;;;;;;;37.92;13.68;;;;;;;;;;4967397;28;20455;-62
2022/03/11 07:24:11;;;;;;;27.73;12.35;;;;;;;;;;4968175;28;20392;-62
2022/03/11 07:26:37;;;;;;;28.48;12.38;;;;;;;;;;4974365;28;20026;-62
2022/03/11 07:29:03;;;;;;;21.27;9.77;;;;;;;;;;4974214;28;20031;-63
2022/03/11 07:31:29;;;;;;;17.80;9.32;;;;;;;;;;4968337;28;20101;-63
2022/03/11 07:33:56;;;;;;;21.65;9.95;;;;;;;;;;4964333;28;20383;-61
2022/03/11 07:36:22;;;;;;;47.20;23.50;;;;;;;;;;4962874;28;20019;-62
2022/03/11 07:38:48;;;;;;;24.30;11.65;;;;;;;;;;4962511;28;20033;-63
2022/03/11 07:41:15;;;;;;;22.98;10.82;;;;;;;;;;4964047;28;20037;-61
2022/03/11 07:43:42;;;;;;;19.73;10.38;;;;;;;;;;4960330;28;20050;-61
2022/03/11 07:46:08;;;;;;;23.42;11.85;;;;;;;;;;4963118;28;20031;-62
2022/03/11 07:48:34;;;;;;;53.45;25.90;;;;;;;;;;4961339;28;20031;-63
2022/03/11 07:51:02;;;;;;;28.02;14.43;;;;;;;;;;4962370;28;20046;-63
2022/03/11 07:53:28;;;;;;;29.48;12.07;;;;;;;;;;4957152;28;20035;-63
2022/03/11 07:55:54;;;;;;;24.73;11.85;;;;;;;;;;4973877;28;20168;-62
2022/03/11 07:58:21;;;;;;;22.30;11.13;;;;;;;;;;4972490;28;20027;-61
2022/03/11 08:00:50;;;;;;;26.05;12.32;;;;;;;;;;4973871;28;20019;-61
2022/03/11 08:03:17;;;;;;;26.92;12.43;;;;;;;;;;4973600;28;20039;-59
2022/03/11 08:05:43;;;;;;;25.27;12.05;;;;;;;;;;4973623;28;20031;-64
2022/03/11 08:08:09;;;;;;;24.52;12.23;;;;;;;;;;4973681;28;20085;-74
2022/03/11 08:10:37;;;;;;;24.80;12.75;;;;;;;;;;4973066;28;20312;-74
2022/03/11 08:13:03;;;;;;;25.80;11.90;;;;;;;;;;4973617;28;20402;-72
2022/03/11 08:15:29;;;;;;;24.15;10.90;;;;;;;;;;4973854;28;20032;-60
2022/03/11 08:17:55;;;;;;;23.55;11.73;;;;;;;;;;4973143;28;20085;-60
2022/03/11 08:20:22;;;;;;;24.40;11.60;;;;;;;;;;4972938;28;20023;-72
2022/03/11 08:22:50;;;;;;;28.17;11.70;;;;;;;;;;4973063;28;20486;-75
2022/03/11 08:25:17;;;;;;;24.88;12.02;;;;;;;;;;4956572;28;20157;-74
2022/03/11 08:27:43;;;;;;;23.35;11.93;;;;;;;;;;4973552;28;20037;-64
2022/03/11 08:30:11;;;;;;;24.35;12.25;;;;;;;;;;4973256;28;20504;-62
2022/03/11 08:32:37;;;;;;;22.88;12.05;;;;;;;;;;4973421;28;20109;-71
2022/03/11 08:35:04;;;;;;;20.92;11.50;;;;;;;;;;4973172;28;20070;-71
2022/03/11 08:37:30;;;;;;;21.75;11.13;;;;;;;;;;4969551;28;20671;-60
2022/03/11 08:39:56;;;;;;;22.20;10.80;;;;;;;;;;4967419;28;20050;-72
2022/03/11 08:42:22;;;;;;;22.77;11.32;;;;;;;;;;4966114;28;20103;-73
2022/03/11 08:44:48;;;;;;;24.73;11.70;;;;;;;;;;4953408;29;20031;-71
2022/03/11 08:47:14;;;;;;;22.63;11.80;;;;;;;;;;4953953;29;20114;-70
2022/03/11 08:49:40;;;;;;;23.95;12.63;;;;;;;;;;4953558;29;20024;-70
2022/03/11 08:52:06;;;;;;;21.00;11.18;;;;;;;;;;4955532;28;20027;-72
2022/03/11 08:54:32;;;;;;;21.80;11.55;;;;;;;;;;4953571;29;20023;-63
2022/03/11 08:56:59;;;;;;;24.05;11.30;;;;;;;;;;4953268;29;20020;-66
2022/03/11 08:59:26;;;;;;;21.25;11.73;;;;;;;;;;4953361;29;20110;-69
2022/03/11 09:01:52;;;;;;;23.63;11.73;;;;;;;;;;4953158;29;20042;-72
2022/03/11 09:04:20;;;;;;;21.85;12.38;;;;;;;;;;4953232;29;20097;-66
2022/03/11 09:06:46;;;;;;;22.95;12.30;;;;;;;;;;4952917;29;20030;-72
2022/03/11 09:09:12;;;;;;;23.67;12.95;;;;;;;;;;4953057;28;20020;-71
2022/03/11 09:11:38;;;;;;;25.25;11.48;;;;;;;;;;4952519;29;20368;-61
2022/03/11 09:14:04;;;;;;;23.38;11.38;;;;;;;;;;4952732;29;20118;-60
2022/03/11 09:16:31;;;;;;;27.52;12.82;;;;;;;;;;4953042;29;20530;-60
2022/03/11 09:18:59;;;;;;;24.88;12.43;;;;;;;;;;4952748;29;20173;-61
2022/03/11 09:21:25;;;;;;;22.73;10.65;;;;;;;;;;4952334;29;20051;-60
2022/03/11 09:23:51;;;;;;;19.58;10.88;;;;;;;;;;4952067;29;20567;-61
2022/03/11 09:26:17;;;;;;;20.15;11.13;;;;;;;;;;4952147;29;20023;-62
2022/03/11 09:28:43;;;;;;;28.13;16.15;;;;;;;;;;4952783;29;20038;-59
2022/03/11 09:31:09;;;;;;;22.23;10.13;;;;;;;;;;4934536;29;20528;-60
2022/03/11 09:33:36;;;;;;;19.55;9.43;;;;;;;;;;4952704;29;20035;-60
2022/03/11 09:36:03;;;;;;;24.10;12.07;;;;;;;;;;4952266;29;20023;-60
2022/03/11 09:38:29;;;;;;;29.10;12.88;;;;;;;;;;4952018;29;20681;-61
2022/03/11 09:40:56;;;;;;;27.42;13.05;;;;;;;;;;4952485;29;20070;-60
2022/03/11 09:43:22;;;;;;;22.17;11.30;;;;;;;;;;4952209;29;20503;-60
2022/03/11 09:45:49;;;;;;;21.42;10.60;;;;;;;;;;4952534;29;20027;-61
2022/03/11 09:48:16;;;;;;;16.25;9.23;;;;;;;;;;4951965;29;20027;-60
2022/03/11 09:50:42;;;;;;;32.92;16.70;;;;;;;;;;4951953;28;20062;-65
2022/03/11 09:53:09;;;;;;;16.10;9.20;;;;;;;;;;4952345;29;20434;-60
2022/03/11 09:55:35;;;;;;;18.48;10.15;;;;;;;;;;4951988;29;20050;-60
2022/03/11 09:58:01;;;;;;;16.00;8.65;;;;;;;;;;4952140;29;20032;-61
2022/03/11 10:00:27;;;;;;;18.35;9.90;;;;;;;;;;4951354;28;20031;-65
2022/03/11 10:02:53;;;;;;;17.85;10.45;;;;;;;;;;4951998;29;20443;-61
2022/03/11 10:05:19;;;;;;;19.50;10.63;;;;;;;;;;4951839;29;20027;-65
2022/03/11 10:07:45;;;;;;;16.75;9.65;;;;;;;;;;4951856;29;20027;-61
2022/03/11 10:10:15;;;;;;;17.08;9.50;;;;;;;;;;4951698;29;20058;-61
2022/03/11 10:12:43;;;;;;;14.75;9.07;;;;;;;;;;4952373;29;20020;-60
2022/03/11 10:15:10;;;;;;;18.38;9.80;;;;;;;;;;4951482;29;20036;-63
2022/03/11 10:17:37;;;;;;;20.65;9.95;;;;;;;;;;4952019;29;20562;-59
2022/03/11 10:20:07;;;;;;;16.05;9.90;;;;;;;;;;4934367;28;20027;-65
2022/03/11 10:22:34;;;;;;;23.08;10.95;;;;;;;;;;4950673;28;20059;-60
2022/03/11 10:25:08;;;;;;;18.10;10.43;;;;;;;;;;4951419;29;20174;-61
2022/03/11 10:27:39;;;;;;;19.50;10.63;;;;;;;;;;4954393;28;20118;-61
2022/03/11 10:30:17;;;;;;;19.80;10.38;;;;;;;;;;4951947;28;20066;-62
2022/03/11 10:32:53;;;;;;;17.63;10.00;;;;;;;;;;4952104;29;20035;-64
2022/03/11 10:35:20;;;;;;;20.48;10.45;;;;;;;;;;4950489;29;20027;-61
2022/03/11 10:37:55;;;;;;;28.13;14.13;;;;;;;;;;4950985;29;20034;-61
2022/03/11 10:40:21;;;;;;;18.02;9.57;;;;;;;;;;4951885;29;20062;-62
2022/03/11 10:42:47;;;;;;;15.30;9.23;;;;;;;;;;4951623;29;20031;-61
2022/03/11 10:45:14;;;;;;;16.67;9.40;;;;;;;;;;4953435;28;20038;-61
2022/03/11 10:47:41;;;;;;;17.45;10.05;;;;;;;;;;4959976;28;20279;-70
2022/03/11 10:50:11;;;;;;;23.17;11.10;;;;;;;;;;4958914;28;20040;-60
2022/03/11 10:52:42;;;;;;;18.65;9.43;;;;;;;;;;4958547;28;20030;-60
2022/03/11 10:55:31;;;;;;;14.57;8.80;;;;;;;;;;4966266;28;20047;-61
2022/03/11 10:57:58;;;;;;;18.00;9.32;;;;;;;;;;4960803;28;20024;-60
2022/03/11 11:00:28;;;;;;;16.08;9.77;;;;;;;;;;4960029;28;20046;-60
2022/03/11 11:02:55;;;;;;;16.77;9.40;;;;;;;;;;4960905;28;20027;-60
2022/03/11 11:05:21;;;;;;;14.10;9.15;;;;;;;;;;4959561;28;20027;-64
2022/03/11 11:07:47;;;;;;;16.60;8.93;;;;;;;;;;4959654;28;20133;-61
2022/03/11 11:10:15;;;;;;;20.27;12.13;;;;;;;;;;4959397;28;20031;-60
2022/03/11 11:12:41;;;;;;;19.38;8.98;;;;;;;;;;4959432;28;20462;-58
2022/03/11 11:15:08;;;;;;;35.47;13.85;;;;;;;;;;4960611;28;20038;-59
2022/03/11 11:17:37;;;;;;;20.80;11.73;;;;;;;;;;4958958;28;20027;-59
2022/03/11 11:20:04;;;;;;;17.40;10.15;;;;;;;;;;4958845;28;20057;-61
2022/03/11 11:22:30;;;;;;;28.90;12.77;;;;;;;;;;4960032;28;20042;-65
2022/03/11 11:24:57;;;;;;;20.38;9.43;;;;;;;;;;4958178;28;20023;-64
2022/03/11 11:27:24;;;;;;;16.67;9.57;;;;;;;;;;4960760;28;20505;-66
2022/03/11 11:29:50;;;;;;;43.17;21.80;;;;;;;;;;4959300;28;20019;-61
2022/03/11 11:32:20;;;;;;;25.58;12.57;;;;;;;;;;4959514;28;20450;-60
2022/03/11 11:34:46;;;;;;;15.60;8.32;;;;;;;;;;4962549;28;20507;-65
2022/03/11 11:37:36;;;;;;;18.75;10.80;;;;;;;;;;4962514;28;20031;-62
2022/03/11 11:40:17;;;;;;;15.70;8.65;;;;;;;;;;4885494;29;20104;-62
2022/03/11 11:42:43;;;;;;;14.30;8.57;;;;;;;;;;4885237;29;20066;-62
2022/03/11 11:45:15;;;;;;;16.08;8.80;;;;;;;;;;4883962;29;20475;-61
2022/03/11 11:47:41;;;;;;;13.75;8.40;;;;;;;;;;4883117;29;20081;-62
2022/03/11 11:50:15;;;;;;;12.35;7.80;;;;;;;;;;4885079;29;20492;-61
2022/03/11 11:52:53;;;;;;;20.58;10.45;;;;;;;;;;4884379;29;20025;-62
2022/03/11 11:55:20;;;;;;;16.55;8.70;;;;;;;;;;4878530;29;20039;-66
2022/03/11 11:57:47;;;;;;;16.20;8.75;;;;;;;;;;4869487;29;20505;-62
2022/03/11 12:00:34;;;;;;;13.68;7.30;;;;;;;;;;4884085;29;20112;-63
2022/03/11 12:03:00;;;;;;;12.55;7.75;;;;;;;;;;4884628;29;20032;-62
2022/03/11 12:05:38;;;;;;;12.73;7.18;;;;;;;;;;4884807;29;20112;-61
2022/03/11 12:08:04;;;;;;;15.65;6.90;;;;;;;;;;4884622;29;20032;-62
2022/03/11 12:10:30;;;;;;;12.27;7.38;;;;;;;;;;4883427;29;20052;-63
2022/03/11 12:13:01;;;;;;;11.77;7.03;;;;;;;;;;4883482;29;20041;-61
2022/03/11 12:15:27;;;;;;;10.18;5.88;;;;;;;;;;4884795;29;20028;-61
2022/03/11 12:18:02;;;;;;;12.38;7.18;;;;;;;;;;4951195;28;20049;-61
2022/03/11 12:20:49;;;;;;;15.57;8.45;;;;;;;;;;4961374;28;20039;-66
2022/03/11 12:23:15;;;;;;;12.95;7.20;;;;;;;;;;4962056;28;20086;-58
2022/03/11 12:25:44;;;;;;;11.65;6.70;;;;;;;;;;4961564;28;20015;-60
2022/03/11 12:28:18;;;;;;;14.23;7.20;;;;;;;;;;4960541;28;20015;-63
2022/03/11 12:30:47;;;;;;;10.23;6.22;;;;;;;;;;4960888;28;20066;-63
2022/03/11 12:33:26;;;;;;;12.98;7.47;;;;;;;;;;4961273;28;20031;-61
2022/03/11 12:35:54;;;;;;;16.80;8.82;;;;;;;;;;4961518;28;20076;-60
2022/03/11 12:38:31;;;;;;;11.43;5.85;;;;;;;;;;4961541;28;20069;-63
2022/03/11 12:41:01;;;;;;;13.32;6.55;;;;;;;;;;4961324;28;20027;-61
2022/03/11 12:43:27;;;;;;;13.02;7.15;;;;;;;;;;4960656;28;20090;-64
2022/03/11 12:45:55;;;;;;;11.73;6.80;;;;;;;;;;4961891;28;20081;-60
2022/03/11 12:48:25;;;;;;;9.20;4.90;;;;;;;;;;4957358;28;20035;-62
2022/03/11 12:50:51;;;;;;;12.30;6.72;;;;;;;;;;4961692;28;20045;-63
2022/03/11 12:53:18;;;;;;;13.18;6.35;;;;;;;;;;4969621;28;20403;-62
2022/03/11 12:55:45;;;;;;;10.98;6.13;;;;;;;;;;4972109;28;20471;-61
2022/03/11 12:58:14;;;;;;;10.10;5.88;;;;;;;;;;4972366;28;20111;-62
2022/03/11 13:00:41;;;;;;;13.25;6.57;;;;;;;;;;4971573;28;20031;-61
2022/03/11 13:03:11;;;;;;;13.55;7.40;;;;;;;;;;4972306;28;20031;-62
2022/03/11 13:05:38;;;;;;;18.45;8.25;;;;;;;;;;4971726;28;20031;-61
2022/03/11 13:08:08;;;;;;;15.88;8.63;;;;;;;;;;4972253;28;20033;-60
2022/03/11 13:10:35;;;;;;;16.50;9.82;;;;;;;;;;4971278;28;20089;-62
2022/03/11 13:13:01;;;;;;;13.50;8.20;;;;;;;;;;4972259;28;20031;-62
2022/03/11 13:15:29;;;;;;;20.58;11.15;;;;;;;;;;4971957;28;20033;-63
2022/03/11 13:18:01;;;;;;;14.07;6.93;;;;;;;;;;4965545;28;20019;-64
2022/03/11 13:20:27;;;;;;;14.93;8.05;;;;;;;;;;4971548;28;20035;-63
2022/03/11 13:22:53;;;;;;;14.07;7.95;;;;;;;;;;4971591;28;20104;-63
2022/03/11 13:25:26;;;;;;;11.68;6.80;;;;;;;;;;4971964;28;20026;-61
2022/03/11 13:27:52;;;;;;;12.25;7.82;;;;;;;;;;4971655;28;20026;-62
2022/03/11 13:30:38;;;;;;;10.55;6.40;;;;;;;;;;4972094;28;20031;-62
2022/03/11 13:33:15;;;;;;;10.98;6.65;;;;;;;;;;4972198;28;20101;-61
2022/03/11 13:35:41;;;;;;;11.68;7.65;;;;;;;;;;4971842;28;20546;-61
2022/03/11 13:38:07;;;;;;;11.02;6.68;;;;;;;;;;4971734;28;20031;-61
2022/03/11 13:40:33;;;;;;;12.82;7.05;;;;;;;;;;4971321;28;20447;-64
2022/03/11 13:43:01;;;;;;;18.33;10.32;;;;;;;;;;4971468;28;20039;-60
2022/03/11 13:45:36;;;;;;;20.27;10.65;;;;;;;;;;4965246;28;20086;-60
2022/03/11 13:48:10;;;;;;;14.57;7.53;;;;;;;;;;4970767;28;20077;-62
2022/03/11 13:50:36;;;;;;;26.27;14.85;;;;;;;;;;4970906;28;20031;-63
2022/03/11 13:53:03;;;;;;;14.80;7.07;;;;;;;;;;4967104;28;20030;-62
2022/03/11 13:55:36;;;;;;;10.48;5.50;;;;;;;;;;4960014;28;20015;-61
2022/03/11 13:58:13;;;;;;;31.42;13.05;;;;;;;;;;4941666;28;20038;-64
2022/03/11 14:00:39;;;;;;;11.88;6.05;;;;;;;;;;4959613;28;20110;-61
2022/03/11 14:03:21;;;;;;;24.77;9.77;;;;;;;;;;4958999;28;20370;-60
2022/03/11 14:05:47;;;;;;;;;;;;;;;;;;4961075;28;20011;-63
2022/03/11 14:08:21;;;;;;;10.00;5.50;;;;;;;;;;4955651;28;19962;-60
2022/03/11 14:10:47;;;;;;;10.30;5.28;;;;;;;;;;4951821;29;20106;-60
2022/03/11 14:13:18;;;;;;;9.15;5.30;;;;;;;;;;4952089;29;20416;-61
2022/03/11 14:15:45;;;;;;;8.13;4.95;;;;;;;;;;4954238;28;20431;-61
2022/03/11 14:18:13;;;;;;;11.27;5.30;;;;;;;;;;4952043;29;20118;-61
2022/03/11 14:20:42;;;;;;;23.25;9.48;;;;;;;;;;4951334;28;20047;-62
2022/03/11 14:23:08;;;;;;;12.50;6.25;;;;;;;;;;4951657;29;20130;-61
2022/03/11 14:25:35;;;;;;;9.27;5.38;;;;;;;;;;4952169;29;20082;-69
2022/03/11 14:28:01;;;;;;;10.63;4.70;;;;;;;;;;4951583;29;20086;-62
2022/03/11 14:30:27;;;;;;;18.02;6.93;;;;;;;;;;4952036;29;20067;-64
2022/03/11 14:32:53;;;;;;;25.45;10.45;;;;;;;;;;4951789;29;20415;-63
2022/03/11 14:35:20;;;;;;;8.52;4.35;;;;;;;;;;4952004;29;20023;-61
2022/03/11 14:37:46;;;;;;;14.88;7.70;;;;;;;;;;4961760;28;20062;-60
2022/03/11 14:40:12;;;;;;;24.63;9.95;;;;;;;;;;4971158;28;20062;-62
2022/03/11 14:42:39;;;;;;;16.27;7.30;;;;;;;;;;4970756;28;20102;-59
2022/03/11 14:45:06;;;;;;;16.08;9.20;;;;;;;;;;4970569;28;20105;-61
2022/03/11 14:47:33;;;;;;;8.95;4.88;;;;;;;;;;4962819;28;20034;-61
2022/03/11 14:49:59;;;;;;;12.30;5.90;;;;;;;;;;4951832;29;20042;-61
2022/03/11 14:52:25;;;;;;;12.40;6.05;;;;;;;;;;4951817;29;20043;-61
2022/03/11 14:54:52;;;;;;;7.55;4.30;;;;;;;;;;4951737;29;20487;-62
2022/03/11 14:57:18;;;;;;;11.00;6.63;;;;;;;;;;4951874;29;20035;-62
2022/03/11 14:59:44;;;;;;;17.42;8.75;;;;;;;;;;4951361;29;20031;-61
2022/03/11 15:02:10;;;;;;;18.35;7.63;;;;;;;;;;4951511;29;20035;-64
2022/03/11 15:04:36;;;;;;;17.60;9.48;;;;;;;;;;4951694;29;20027;-63
2022/03/11 15:07:02;;;;;;;20.42;9.20;;;;;;;;;;4951878;28;20032;-64
2022/03/11 15:09:28;;;;;;;11.07;4.95;;;;;;;;;;4955311;29;20050;-61
2022/03/11 15:11:54;;;;;;;18.60;8.25;;;;;;;;;;4968739;28;20491;-64
2022/03/11 15:14:20;;;;;;;17.63;8.00;;;;;;;;;;4973641;28;20030;-64
2022/03/11 15:16:46;;;;;;;12.65;6.90;;;;;;;;;;4956325;28;20027;-62
2022/03/11 15:19:13;;;;;;;10.40;5.95;;;;;;;;;;4974348;28;20031;-59
2022/03/11 15:21:39;;;;;;;7.90;3.95;;;;;;;;;;4971967;28;20133;-63
2022/03/11 15:24:09;;;;;;;13.60;7.38;;;;;;;;;;4964941;28;20053;-65
2022/03/11 15:26:35;;;;;;;11.40;5.57;;;;;;;;;;4973782;28;20082;-63
2022/03/11 15:29:01;;;;;;;9.25;4.82;;;;;;;;;;4973750;28;20027;-62
2022/03/11 15:31:30;;;;;;;7.32;4.03;;;;;;;;;;4973492;28;20029;-67
2022/03/11 15:33:56;;;;;;;9.73;5.30;;;;;;;;;;4966729;28;20015;-63
2022/03/11 15:36:23;;;;;;;7.13;4.35;;;;;;;;;;4954251;29;20067;-64
2022/03/11 15:38:50;;;;;;;10.55;5.30;;;;;;;;;;4954395;29;20392;-66
2022/03/11 15:41:16;;;;;;;23.55;11.80;;;;;;;;;;4954617;29;20867;-64
2022/03/11 15:43:42;;;;;;;19.35;10.32;;;;;;;;;;4954185;29;20115;-64
2022/03/11 15:46:09;;;;;;;12.45;6.95;;;;;;;;;;4954451;29;20019;-61
2022/03/11 15:48:35;;;;;;;17.67;7.47;;;;;;;;;;4954279;29;20031;-62
2022/03/11 15:51:01;;;;;;;11.32;4.00;;;;;;;;;;4959693;28;20033;-66
2022/03/11 15:53:27;;;;;;;8.02;4.68;;;;;;;;;;4973546;28;20034;-64
2022/03/11 15:55:53;;;;;;;13.48;7.32;;;;;;;;;;4949407;28;20469;-61
2022/03/11 15:58:19;;;;;;;9.75;4.97;;;;;;;;;;4969893;28;20471;-63
2022/03/11 16:00:45;;;;;;;9.20;5.47;;;;;;;;;;4973181;28;20054;-62
2022/03/11 16:03:11;;;;;;;11.32;5.90;;;;;;;;;;4968952;28;20094;-61
2022/03/11 16:05:38;;;;;;;7.28;4.60;;;;;;;;;;4953777;29;20039;-62
2022/03/11 16:08:05;;;;;;;11.05;5.88;;;;;;;;;;4954310;29;20031;-63
2022/03/11 16:10:31;;;;;;;14.35;7.68;;;;;;;;;;4954173;29;20023;-63
2022/03/11 16:12:59;;;;;;;15.60;6.65;;;;;;;;;;4953640;29;20482;-62
2022/03/11 16:15:25;;;;;;;13.13;5.57;;;;;;;;;;4956211;28;20034;-64
2022/03/11 16:17:52;;;;;;;10.65;4.60;;;;;;;;;;4957563;28;20487;-61
2022/03/11 16:20:18;;;;;;;10.27;4.35;;;;;;;;;;4961410;28;20050;-60
2022/03/11 16:22:44;;;;;;;16.33;7.93;;;;;;;;;;4969312;28;20511;-63
2022/03/11 16:25:10;;;;;;;10.48;5.03;;;;;;;;;;4960709;28;20479;-67
2022/03/11 16:27:38;;;;;;;15.57;7.47;;;;;;;;;;4963269;28;20059;-60
2022/03/11 16:30:04;;;;;;;9.30;5.10;;;;;;;;;;4961620;28;20507;-65
2022/03/11 16:32:32;;;;;;;10.55;5.65;;;;;;;;;;4961304;28;20462;-61
2022/03/11 16:34:58;;;;;;;11.45;6.07;;;;;;;;;;4962977;28;20019;-66
2022/03/11 16:37:24;;;;;;;10.85;5.72;;;;;;;;;;4962591;28;20042;-60
2022/03/11 16:39:50;;;;;;;13.35;6.68;;;;;;;;;;4972720;28;20041;-63
2022/03/11 16:42:16;;;;;;;15.38;7.18;;;;;;;;;;4972849;28;20030;-65
2022/03/11 16:44:43;;;;;;;14.20;6.78;;;;;;;;;;4972643;28;20023;-62
2022/03/11 16:47:09;;;;;;;13.15;7.18;;;;;;;;;;4972844;28;20023;-62
2022/03/11 16:49:39;;;;;;;14.50;6.65;;;;;;;;;;4972900;28;20047;-62
2022/03/11 16:52:06;;;;;;;13.35;6.28;;;;;;;;;;4972600;28;20380;-61
2022/03/11 16:54:32;;;;;;;13.00;5.78;;;;;;;;;;4972567;28;20089;-62
2022/03/11 16:56:58;;;;;;;11.00;5.82;;;;;;;;;;4972711;28;20023;-63
2022/03/11 16:59:25;;;;;;;12.23;6.45;;;;;;;;;;4972622;28;20030;-63
2022/03/11 17:01:51;;;;;;;12.77;5.70;;;;;;;;;;4972999;28;20054;-63
2022/03/11 17:04:17;;;;;;;17.98;7.80;;;;;;;;;;4971956;28;20050;-61
2022/03/11 17:06:43;;;;;;;22.25;8.95;;;;;;;;;;4972655;28;20027;-61
2022/03/11 17:09:13;;;;;;;21.05;7.47;;;;;;;;;;4972106;28;20034;-62
2022/03/11 17:11:39;;;;;;;16.25;6.60;;;;;;;;;;4972192;28;20030;-64
2022/03/11 17:14:07;;;;;;;16.80;6.90;;;;;;;;;;4972128;28;20661;-61
2022/03/11 17:16:33;;;;;;;16.83;8.50;;;;;;;;;;4972175;28;20114;-61
2022/03/11 17:19:00;;;;;;;14.82;6.85;;;;;;;;;;4971512;28;20700;-69
2022/03/11 17:21:26;;;;;;;14.90;7.68;;;;;;;;;;4970386;28;20602;-62
2022/03/11 17:23:52;;;;;;;17.27;8.27;;;;;;;;;;4971758;28;20487;-60
2022/03/11 17:26:19;;;;;;;17.30;8.15;;;;;;;;;;4971868;28;20117;-61
2022/03/11 17:28:45;;;;;;;23.45;7.65;;;;;;;;;;4971764;28;20023;-62
2022/03/11 17:31:11;;;;;;;22.55;9.95;;;;;;;;;;4971238;28;20038;-64
2022/03/11 17:33:37;;;;;;;23.90;10.57;;;;;;;;;;4971575;28;20033;-67
2022/03/11 17:36:03;;;;;;;27.67;11.65;;;;;;;;;;4971954;28;20439;-61
2022/03/11 17:38:29;;;;;;;28.98;13.95;;;;;;;;;;4971003;28;20022;-68
2022/03/11 17:40:55;;;;;;;29.45;11.48;;;;;;;;;;4971806;28;20039;-60
2022/03/11 17:43:22;;;;;;;28.85;10.73;;;;;;;;;;4971763;28;20041;-62
2022/03/11 17:45:49;;;;;;;30.08;13.25;;;;;;;;;;4971767;28;20513;-60
2022/03/11 17:48:15;;;;;;;31.58;14.25;;;;;;;;;;4971888;28;20037;-64
2022/03/11 17:50:41;;;;;;;32.83;13.75;;;;;;;;;;4971581;28;20037;-62
2022/03/11 17:53:07;;;;;;;40.10;18.83;;;;;;;;;;4953840;28;20034;-63
2022/03/11 17:55:33;;;;;;;29.67;13.80;;;;;;;;;;4971115;28;20101;-60
2022/03/11 17:58:00;;;;;;;31.38;14.50;;;;;;;;;;4971700;28;20138;-61
2022/03/11 18:00:27;;;;;;;40.88;16.70;;;;;;;;;;4971086;28;20023;-61
2022/03/11 18:02:53;;;;;;;52.20;24.25;;;;;;;;;;4971297;28;20414;-61
2022/03/11 18:05:19;;;;;;;37.78;16.25;;;;;;;;;;4971213;28;20031;-61
2022/03/11 18:07:48;;;;;;;43.28;18.20;;;;;;;;;;4971275;28;20169;-62
2022/03/11 18:10:14;;;;;;;41.90;17.80;;;;;;;;;;4971163;28;20038;-62
2022/03/11 18:12:41;;;;;;;34.40;15.43;;;;;;;;;;4971165;28;20113;-67
2022/03/11 18:15:07;;;;;;;45.58;19.20;;;;;;;;;;4971268;28;20031;-61
2022/03/11 18:17:34;;;;;;;42.65;20.70;;;;;;;;;;4970765;28;20030;-60
2022/03/11 18:20:01;;;;;;;31.38;12.15;;;;;;;;;;4970707;28;20026;-60
2022/03/11 18:22:27;;;;;;;43.05;17.45;;;;;;;;;;4970737;28;20103;-61
2022/03/11 18:24:54;;;;;;;35.47;16.10;;;;;;;;;;4970988;28;20550;-64
2022/03/11 18:27:20;;;;;;;34.22;16.80;;;;;;;;;;4970989;28;20035;-62
2022/03/11 18:29:46;;;;;;;40.50;18.60;;;;;;;;;;4971136;28;20030;-61
2022/03/11 18:32:12;;;;;;;39.50;17.38;;;;;;;;;;4971266;28;20031;-61
2022/03/11 18:34:41;;;;;;;44.85;17.95;;;;;;;;;;4965088;28;20866;-60
2022/03/11 18:37:07;;;;;;;38.33;14.82;;;;;;;;;;4970176;28;20023;-62
2022/03/11 18:39:33;;;;;;;42.03;17.23;;;;;;;;;;4970658;28;20390;-61
2022/03/11 18:41:59;;;;;;;39.15;17.98;;;;;;;;;;4970637;28;20530;-72
2022/03/11 18:44:25;;;;;;;38.45;17.13;;;;;;;;;;4974459;28;20043;-63
2022/03/11 18:46:51;;;;;;;37.20;14.50;;;;;;;;;;4974959;28;20097;-72
2022/03/11 18:49:18;;;;;;;33.80;13.88;;;;;;;;;;4973637;28;20030;-69
2022/03/11 18:51:44;;;;;;;39.42;16.33;;;;;;;;;;4974443;28;20058;-62
2022/03/11 18:54:10;;;;;;;43.92;15.77;;;;;;;;;;4974263;28;20030;-61
2022/03/11 18:56:37;;;;;;;42.70;16.77;;;;;;;;;;4973858;28;20452;-62
2022/03/11 18:59:04;;;;;;;39.92;18.00;;;;;;;;;;4974339;28;20035;-72
2022/03/11 19:01:30;;;;;;;42.92;19.65;;;;;;;;;;4974424;28;20030;-61
2022/03/11 19:03:56;;;;;;;48.50;20.77;;;;;;;;;;4973852;28;20046;-62
2022/03/11 19:06:22;;;;;;;56.15;23.52;;;;;;;;;;4974244;28;20082;-61
2022/03/11 19:08:48;;;;;;;42.60;19.23;;;;;;;;;;4974063;28;20155;-63
2022/03/11 19:11:22;;;;;;;37.90;16.98;;;;;;;;;;4972554;28;20097;-61
2022/03/11 19:13:49;;;;;;;65.82;28.40;;;;;;;;;;4972705;28;20129;-64
2022/03/11 19:16:18;;;;;;;101.10;39.30;;;;;;;;;;4973366;28;20479;-67
2022/03/11 19:18:44;;;;;;;36.90;15.82;;;;;;;;;;4972518;28;20026;-64
2022/03/11 19:21:13;;;;;;;41.53;16.35;;;;;;;;;;4961101;28;20531;-61
2022/03/11 19:23:39;;;;;;;48.72;18.30;;;;;;;;;;4963054;28;20041;-67
2022/03/11 19:26:06;;;;;;;38.53;17.80;;;;;;;;;;4963004;28;20030;-61
2022/03/11 19:28:32;;;;;;;54.15;21.88;;;;;;;;;;4962486;28;20038;-59
2022/03/11 19:30:59;;;;;;;58.75;24.33;;;;;;;;;;4963658;28;20023;-61
2022/03/11 19:33:27;;;;;;;71.30;31.33;;;;;;;;;;4963738;28;20031;-62
2022/03/11 19:35:57;;;;;;;53.40;23.30;;;;;;;;;;4961255;28;20023;-62
2022/03/11 19:38:24;;;;;;;53.40;22.58;;;;;;;;;;4963253;28;20039;-61
2022/03/11 19:40:56;;;;;;;60.78;25.23;;;;;;;;;;4960568;28;20038;-67
2022/03/11 19:43:22;;;;;;;56.85;25.38;;;;;;;;;;4962055;28;20615;-61
2022/03/11 19:45:48;;;;;;;75.30;35.13;;;;;;;;;;4964608;28;20414;-62
2022/03/11 19:48:15;;;;;;;83.07;36.80;;;;;;;;;;4963605;28;20035;-63
2022/03/11 19:50:41;;;;;;;59.75;27.10;;;;;;;;;;4965395;28;20035;-64
2022/03/11 19:53:07;;;;;;;58.67;27.38;;;;;;;;;;4973420;28;20487;-65
2022/03/11 19:55:35;;;;;;;61.72;27.27;;;;;;;;;;4973220;28;20045;-67
2022/03/11 19:58:01;;;;;;;42.75;19.88;;;;;;;;;;4971946;28;20018;-61
2022/03/11 20:00:27;;;;;;;49.13;21.85;;;;;;;;;;4972996;28;20067;-67
2022/03/11 20:02:55;;;;;;;40.72;18.63;;;;;;;;;;4973407;28;20111;-61
2022/03/11 20:05:21;;;;;;;51.47;23.67;;;;;;;;;;4972327;28;20361;-63
2022/03/11 20:07:50;;;;;;;53.63;23.80;;;;;;;;;;4972658;28;20201;-62
2022/03/11 20:10:17;;;;;;;51.58;22.13;;;;;;;;;;4972909;28;20410;-61
2022/03/11 20:12:44;;;;;;;57.15;22.73;;;;;;;;;;4972504;28;20030;-65
2022/03/11 20:15:11;;;;;;;51.53;21.92;;;;;;;;;;4972900;28;20023;-66
2022/03/11 20:17:37;;;;;;;49.88;22.20;;;;;;;;;;4972728;28;20042;-68
2022/03/11 20:20:04;;;;;;;52.92;22.25;;;;;;;;;;4971800;28;20371;-61
2022/03/11 20:22:30;;;;;;;46.70;20.95;;;;;;;;;;4952107;29;20392;-63
2022/03/11 20:24:56;;;;;;;40.50;19.40;;;;;;;;;;4953346;29;20495;-62
2022/03/11 20:27:23;;;;;;;50.05;20.98;;;;;;;;;;4952699;29;20020;-62
2022/03/11 20:29:50;;;;;;;52.30;21.17;;;;;;;;;;4953267;29;20042;-63
2022/03/11 20:32:16;;;;;;;51.10;23.20;;;;;;;;;;4953208;29;20027;-62
2022/03/11 20:34:42;;;;;;;61.47;26.67;;;;;;;;;;4950592;29;20030;-67
2022/03/11 20:37:12;;;;;;;55.13;23.50;;;;;;;;;;4948771;29;20051;-65
2022/03/11 20:39:39;;;;;;;60.35;26.35;;;;;;;;;;4952516;29;20061;-61
2022/03/11 20:42:05;;;;;;;66.22;28.45;;;;;;;;;;4950038;29;20024;-61
2022/03/11 20:44:31;;;;;;;77.60;29.58;;;;;;;;;;4953238;29;20046;-65